createdAt,value
2022-08-17T00:00:43.078Z,81.38
2022-08-17T00:03:10.686Z,81.36
2022-08-17T00:05:51.851Z,81.21
2022-08-17T00:08:25.294Z,81.65
2022-08-17T00:10:54.754Z,81.86
2022-08-17T00:13:25.675Z,81.88
2022-08-17T00:15:58.713Z,81.96
2022-08-17T00:19:06.127Z,82.10
2022-08-17T00:21:25.180Z,82.29
2022-08-17T00:23:53.792Z,82.47
2022-08-17T00:26:43.180Z,82.75
2022-08-17T00:29:19.916Z,82.74
2022-08-17T00:31:48.868Z,82.93
2022-08-17T00:34:17.084Z,83.01
2022-08-17T00:36:45.053Z,82.99
2022-08-17T00:39:12.922Z,83.21
2022-08-17T00:41:42.264Z,83.29
2022-08-17T00:44:13.081Z,83.49
2022-08-17T00:46:43.555Z,83.54
2022-08-17T00:49:12.809Z,83.46
2022-08-17T00:51:56.806Z,83.61
2022-08-17T00:54:41.822Z,83.79
2022-08-17T00:57:17.006Z,84.00
2022-08-17T00:59:56.052Z,84.03
2022-08-17T01:02:42.236Z,84.17
2022-08-17T01:05:20.888Z,84.30
2022-08-17T01:07:52.879Z,84.38
2022-08-17T01:10:59.577Z,84.42
2022-08-17T01:13:17.486Z,84.66
2022-08-17T01:15:54.952Z,84.81
2022-08-17T01:18:23.330Z,85.18
2022-08-17T01:20:54.131Z,85.29
2022-08-17T01:23:24.133Z,85.65
2022-08-17T01:25:55.099Z,85.70
2022-08-17T01:28:52.568Z,85.86
2022-08-17T01:31:14.042Z,86.19
2022-08-17T01:33:42.503Z,86.04
2022-08-17T01:36:10.595Z,86.10
2022-08-17T01:38:39.590Z,86.06
2022-08-17T01:41:12.435Z,86.02
2022-08-17T01:43:47.698Z,86.00
2022-08-17T01:46:22.453Z,86.20
2022-08-17T01:48:51.253Z,86.29
2022-08-17T01:51:20.101Z,86.36
2022-08-17T01:53:51.546Z,86.66
2022-08-17T01:56:23.921Z,86.64
2022-08-17T01:58:52.532Z,86.69
2022-08-17T02:01:23.485Z,86.79
2022-08-17T02:03:56.341Z,86.86
2022-08-17T02:06:53.715Z,86.75
2022-08-17T02:09:25.965Z,86.86
2022-08-17T02:11:56.386Z,86.93
2022-08-17T02:14:25.810Z,87.01
2022-08-17T02:16:54.389Z,87.22
2022-08-17T02:19:22.755Z,87.37
2022-08-17T02:21:53.131Z,87.49
2022-08-17T02:24:58.741Z,87.62
2022-08-17T02:27:19.837Z,87.71
2022-08-17T02:29:47.835Z,87.73
2022-08-17T02:32:27.201Z,87.86
2022-08-17T02:35:00.019Z,87.86
2022-08-17T02:37:30.047Z,87.98
2022-08-17T02:39:58.764Z,88.02
2022-08-17T02:42:39.672Z,88.06
2022-08-17T02:45:11.542Z,88.06
2022-08-17T02:47:40.492Z,88.01
2022-08-17T02:50:11.481Z,87.96
2022-08-17T02:52:44.187Z,87.98
2022-08-17T02:55:25.002Z,87.96
2022-08-17T02:57:53.589Z,87.89
2022-08-17T03:00:25.439Z,87.79
2022-08-17T03:02:54.090Z,87.71
2022-08-17T03:05:24.394Z,87.53
2022-08-17T03:07:52.595Z,87.47
2022-08-17T03:10:21.622Z,87.48
2022-08-17T03:12:50.338Z,87.41
2022-08-17T03:15:21.381Z,87.21
2022-08-17T03:17:49.862Z,87.24
2022-08-17T03:20:18.657Z,87.14
2022-08-17T03:22:53.408Z,87.36
2022-08-17T03:25:26.590Z,87.53
2022-08-17T03:27:55.063Z,87.64
2022-08-17T03:30:24.373Z,87.72
2022-08-17T03:32:54.899Z,87.67
2022-08-17T03:35:25.835Z,87.59
2022-08-17T03:38:00.709Z,87.69
2022-08-17T03:40:55.591Z,87.73
2022-08-17T03:43:19.545Z,87.63
2022-08-17T03:46:10.742Z,87.59
2022-08-17T03:49:14.838Z,87.59
2022-08-17T03:52:01.402Z,87.68
2022-08-17T03:54:48.425Z,87.63
2022-08-17T03:57:16.729Z,87.66
2022-08-17T03:59:45.351Z,87.67
2022-08-17T04:02:30.139Z,87.71
2022-08-17T04:04:58.943Z,87.66
2022-08-17T04:07:29.764Z,87.58
2022-08-17T04:10:01.694Z,87.49
2022-08-17T04:12:41.968Z,87.43
2022-08-17T04:15:10.399Z,87.48
2022-08-17T04:17:40.340Z,87.55
2022-08-17T04:20:09.485Z,87.61
2022-08-17T04:22:38.374Z,87.62
2022-08-17T04:25:18.209Z,87.61
2022-08-17T04:27:46.245Z,87.64
2022-08-17T04:30:14.498Z,87.76
2022-08-17T04:33:08.627Z,87.94
2022-08-17T04:35:41.309Z,88.11
2022-08-17T04:38:14.132Z,88.24
2022-08-17T04:41:01.463Z,88.32
2022-08-17T04:43:31.584Z,88.44
2022-08-17T04:46:08.490Z,88.57
2022-08-17T04:48:42.711Z,88.54
2022-08-17T04:51:18.651Z,88.49
2022-08-17T04:53:53.827Z,88.36
2022-08-17T04:56:25.806Z,88.38
2022-08-17T04:58:57.673Z,88.19
2022-08-17T05:01:31.233Z,88.19
2022-08-17T05:04:20.765Z,88.12
2022-08-17T05:06:50.383Z,88.14
2022-08-17T05:09:18.823Z,88.06
2022-08-17T05:11:51.802Z,88.02
2022-08-17T05:14:19.661Z,87.83
2022-08-17T05:16:51.083Z,87.79
2022-08-17T05:19:19.260Z,87.70
2022-08-17T05:21:54.334Z,87.14
2022-08-17T05:24:43.083Z,87.00
2022-08-17T05:27:10.352Z,86.86
2022-08-17T05:29:44.608Z,86.65
2022-08-17T05:32:38.614Z,86.52
2022-08-17T05:35:02.106Z,86.16
2022-08-17T05:37:30.039Z,85.79
2022-08-17T05:39:58.010Z,85.65
2022-08-17T05:42:26.112Z,85.59
2022-08-17T05:44:56.710Z,85.51
2022-08-17T05:47:26.354Z,85.61
2022-08-17T05:49:54.545Z,86.27
2022-08-17T05:52:47.616Z,86.54
2022-08-17T05:55:33.116Z,87.39
2022-08-17T05:58:28.859Z,87.80
2022-08-17T06:01:11.342Z,87.20
2022-08-17T06:03:49.462Z,86.62
2022-08-17T06:06:32.451Z,86.80
2022-08-17T06:09:05.783Z,87.57
2022-08-17T06:11:53.480Z,86.74
2022-08-17T06:14:40.186Z,86.22
2022-08-17T06:17:16.548Z,85.30
2022-08-17T06:20:15.357Z,85.03
2022-08-17T06:22:49.768Z,83.76
2022-08-17T06:25:31.685Z,82.82
2022-08-17T06:28:26.578Z,81.27
2022-08-17T06:31:01.220Z,79.92
2022-08-17T06:33:35.341Z,79.35
2022-08-17T06:36:55.761Z,81.34
2022-08-17T06:39:40.197Z,82.87
2022-08-17T06:42:59.972Z,83.92
2022-08-17T06:45:14.204Z,84.20
2022-08-17T06:47:57.459Z,84.65
2022-08-17T06:50:36.628Z,84.44
2022-08-17T06:53:26.761Z,84.02
2022-08-17T06:56:07.585Z,83.49
2022-08-17T06:58:41.605Z,83.56
2022-08-17T07:01:18.022Z,83.25
2022-08-17T07:04:12.586Z,82.58
2022-08-17T07:07:31.979Z,81.99
2022-08-17T07:10:01.277Z,81.54
2022-08-17T07:12:38.439Z,81.13
2022-08-17T07:15:15.727Z,81.19
2022-08-17T07:17:47.577Z,81.01
2022-08-17T07:20:21.140Z,80.72
2022-08-17T07:22:50.499Z,80.69
2022-08-17T07:25:30.520Z,80.71
2022-08-17T07:28:02.386Z,80.28
2022-08-17T07:30:45.747Z,78.78
2022-08-17T07:33:20.960Z,77.62
2022-08-17T07:35:50.078Z,73.93
2022-08-17T07:38:26.781Z,76.36
2022-08-17T07:40:58.009Z,76.50
2022-08-17T07:43:38.749Z,77.00
2022-08-17T07:46:35.033Z,78.31
2022-08-17T07:49:08.861Z,78.58
2022-08-17T07:51:52.883Z,77.80
2022-08-17T07:54:37.834Z,77.10
2022-08-17T07:57:14.363Z,76.04
2022-08-17T08:00:03.057Z,73.89
2022-08-17T08:02:47.330Z,71.51
2022-08-17T08:05:30.857Z,70.11
2022-08-17T08:08:25.987Z,70.70
2022-08-17T08:11:10.782Z,72.25
2022-08-17T08:13:43.614Z,73.87
2022-08-17T08:16:17.205Z,74.50
2022-08-17T08:18:55.770Z,75.40
2022-08-17T08:21:43.378Z,75.30
2022-08-17T08:24:23.121Z,75.27
2022-08-17T08:27:32.767Z,75.43
2022-08-17T08:30:09.655Z,75.80
2022-08-17T08:32:54.194Z,75.74
2022-08-17T08:35:46.579Z,76.28
2022-08-17T08:38:30.828Z,76.09
2022-08-17T08:41:45.802Z,76.41
2022-08-17T08:45:00.615Z,76.53
2022-08-17T08:47:35.469Z,76.35
2022-08-17T08:50:37.852Z,75.49
2022-08-17T08:53:37.731Z,75.25
2022-08-17T08:56:16.759Z,75.15
2022-08-17T08:58:59.416Z,74.20
2022-08-17T09:01:58.517Z,73.77
2022-08-17T09:05:13.310Z,73.41
2022-08-17T09:08:13.579Z,72.92
2022-08-17T09:10:59.542Z,73.23
2022-08-17T09:13:42.509Z,71.93
2022-08-17T09:16:20.247Z,71.04
2022-08-17T09:19:01.263Z,71.22
2022-08-17T09:21:44.610Z,71.35
2022-08-17T09:24:48.806Z,70.63
2022-08-17T09:27:26.624Z,71.54
2022-08-17T09:30:04.827Z,70.45
2022-08-17T09:32:44.599Z,70.79
2022-08-17T09:35:19.396Z,71.21
2022-08-17T09:38:28.043Z,70.32
2022-08-17T09:41:21.643Z,68.41
2022-08-17T09:44:23.641Z,66.26
2022-08-17T09:46:54.164Z,66.36
2022-08-17T09:49:29.197Z,65.02
2022-08-17T09:52:30.321Z,66.84
2022-08-17T09:55:01.456Z,67.53
2022-08-17T09:57:46.542Z,68.42
2022-08-17T10:00:27.177Z,68.27
2022-08-17T10:03:19.849Z,68.62
2022-08-17T10:06:06.842Z,67.96
2022-08-17T10:08:43.535Z,68.73
2022-08-17T10:11:44.883Z,69.15
2022-08-17T10:14:37.961Z,70.11
2022-08-17T10:17:37.299Z,69.82
2022-08-17T10:20:20.565Z,69.73
2022-08-17T10:23:18.810Z,70.93
2022-08-17T10:26:05.363Z,71.67
2022-08-17T10:28:40.785Z,72.00
2022-08-17T10:34:24.529Z,72.47
2022-08-17T10:37:20.127Z,72.36
2022-08-17T10:40:11.952Z,72.17
2022-08-17T10:42:58.868Z,73.09
2022-08-17T10:45:37.881Z,73.46
2022-08-17T10:48:10.059Z,73.26
2022-08-17T10:50:55.909Z,73.30
2022-08-17T10:53:32.805Z,73.44
2022-08-17T10:56:12.924Z,73.02
2022-08-17T10:59:02.122Z,73.72
2022-08-17T11:01:57.890Z,74.52
2022-08-17T11:04:34.808Z,74.10
2022-08-17T11:07:32.283Z,74.27
2022-08-17T11:10:21.383Z,73.46
2022-08-17T11:13:21.778Z,73.49
2022-08-17T11:16:32.605Z,74.47
2022-08-17T11:19:09.967Z,73.95
2022-08-17T11:21:51.979Z,73.82
2022-08-17T11:24:40.353Z,73.73
2022-08-17T11:27:33.980Z,73.50
2022-08-17T11:30:35.938Z,73.10
2022-08-17T11:33:38.306Z,72.65
2022-08-17T11:36:26.558Z,72.48
2022-08-17T11:39:13.076Z,71.63
2022-08-17T11:41:48.839Z,72.79
2022-08-17T11:44:53.548Z,72.79
2022-08-17T11:48:16.120Z,73.56
2022-08-17T11:51:46.902Z,73.16
2022-08-17T11:54:34.327Z,73.01
2022-08-17T11:57:25.717Z,73.86
2022-08-17T12:00:05.797Z,74.06
2022-08-17T12:02:47.343Z,74.71
2022-08-17T12:05:21.040Z,76.69
2022-08-17T12:07:55.204Z,75.58
2022-08-17T12:10:31.712Z,76.59
2022-08-17T12:13:04.697Z,77.87
2022-08-17T12:15:37.804Z,79.04
2022-08-17T12:18:05.897Z,79.63
2022-08-17T12:20:40.680Z,79.63
2022-08-17T12:23:11.352Z,79.80
2022-08-17T12:25:51.307Z,78.95
2022-08-17T12:28:30.379Z,80.02
2022-08-17T12:31:21.379Z,79.30
2022-08-17T12:33:51.783Z,79.22
2022-08-17T12:36:24.835Z,81.11
2022-08-17T12:39:14.058Z,80.35
2022-08-17T12:41:46.986Z,80.20
2022-08-17T12:44:16.644Z,80.47
2022-08-17T12:47:03.250Z,80.33
2022-08-17T12:49:37.853Z,81.87
2022-08-17T12:52:29.644Z,81.90
2022-08-17T12:55:08.979Z,80.82
2022-08-17T12:57:44.597Z,81.55
2022-08-17T13:00:20.505Z,82.64
2022-08-17T13:03:02.386Z,81.95
2022-08-17T13:05:40.968Z,82.81
2022-08-17T13:08:30.295Z,83.20
2022-08-17T13:11:06.971Z,83.30
2022-08-17T13:13:44.758Z,84.30
2022-08-17T13:16:17.155Z,85.96
2022-08-17T13:19:12.024Z,87.35
2022-08-17T13:21:50.564Z,87.96
2022-08-17T13:24:38.399Z,87.72
2022-08-17T13:27:12.154Z,88.81
2022-08-17T13:29:52.992Z,90.26
2022-08-17T13:32:33.790Z,89.72
2022-08-17T13:35:28.397Z,90.81
2022-08-17T13:41:35.189Z,91.16
2022-08-17T13:44:43.334Z,92.21
2022-08-17T13:47:22.257Z,91.59
2022-08-17T13:49:50.943Z,91.83
2022-08-17T13:52:58.813Z,91.99
2022-08-17T13:55:30.476Z,90.53
2022-08-17T13:58:06.515Z,90.70
2022-08-17T14:00:49.679Z,91.25
2022-08-17T14:03:25.072Z,91.13
2022-08-17T14:06:05.781Z,90.70
2022-08-17T14:08:34.167Z,91.60
2022-08-17T14:11:28.540Z,91.35
2022-08-17T14:14:25.896Z,91.58
2022-08-17T14:17:23.483Z,91.83
2022-08-17T14:20:23.104Z,91.20
2022-08-17T14:23:41.237Z,90.79
2022-08-17T14:26:23.299Z,91.10
2022-08-17T14:28:56.445Z,90.48
2022-08-17T14:31:28.007Z,91.07
2022-08-17T14:33:56.183Z,91.89
2022-08-17T14:36:24.169Z,92.47
2022-08-17T14:38:52.644Z,92.75
2022-08-17T14:41:23.378Z,93.28
2022-08-17T14:43:53.404Z,93.78
2022-08-17T14:46:21.267Z,93.65
2022-08-17T14:48:57.186Z,94.42
2022-08-17T14:51:28.495Z,94.63
2022-08-17T14:53:57.285Z,94.89
2022-08-17T14:56:26.070Z,95.01
2022-08-17T14:58:54.212Z,94.71
2022-08-17T15:01:24.406Z,94.33
2022-08-17T15:03:53.941Z,94.19
2022-08-17T15:06:22.698Z,94.27
2022-08-17T15:08:51.137Z,94.71
2022-08-17T15:11:19.012Z,94.15
2022-08-17T15:13:53.002Z,94.04
2022-08-17T15:16:21.415Z,93.79
2022-08-17T15:18:50.175Z,93.55
2022-08-17T15:21:22.145Z,93.57
2022-08-17T15:23:51.035Z,93.10
2022-08-17T15:26:25.693Z,93.15
2022-08-17T15:28:56.055Z,92.25
2022-08-17T15:31:32.337Z,92.16
2022-08-17T15:34:05.444Z,91.03
2022-08-17T15:36:36.512Z,90.03
2022-08-17T15:39:04.725Z,89.71
2022-08-17T15:41:32.972Z,89.30
2022-08-17T15:44:00.886Z,89.63
2022-08-17T15:46:29.044Z,88.15
2022-08-17T15:49:00.240Z,88.76
2022-08-17T15:51:30.994Z,88.50
2022-08-17T15:54:19.201Z,89.08
2022-08-17T15:56:50.936Z,89.57
2022-08-17T15:59:19.454Z,90.44
2022-08-17T16:03:15.877Z,90.80
2022-08-17T16:04:44.026Z,91.10
2022-08-17T16:07:14.585Z,91.89
2022-08-17T16:09:44.058Z,91.61
2022-08-17T16:12:16.589Z,91.66
2022-08-17T16:14:45.981Z,91.34
2022-08-17T16:17:38.918Z,91.92
2022-08-17T16:20:04.340Z,91.80
2022-08-17T16:22:35.525Z,91.63
2022-08-17T16:25:11.406Z,91.66
2022-08-17T16:27:39.573Z,91.87
2022-08-17T16:30:13.676Z,91.53
2022-08-17T16:32:45.480Z,91.75
2022-08-17T16:35:17.349Z,91.68
2022-08-17T16:37:45.867Z,91.91
2022-08-17T16:40:16.714Z,92.16
2022-08-17T16:42:49.420Z,91.93
2022-08-17T16:45:24.958Z,92.17
2022-08-17T16:48:01.950Z,92.07
2022-08-17T16:50:31.814Z,92.90
2022-08-17T16:53:18.589Z,92.99
2022-08-17T16:55:49.018Z,93.36
2022-08-17T16:58:16.951Z,93.29
2022-08-17T17:00:48.587Z,93.17
2022-08-17T17:03:20.556Z,92.67
2022-08-17T17:05:57.605Z,92.54
2022-08-17T17:09:03.897Z,92.48
2022-08-17T17:11:51.145Z,92.20
2022-08-17T17:14:30.487Z,91.24
2022-08-17T17:17:17.388Z,91.20
2022-08-17T17:19:47.296Z,90.98
2022-08-17T17:22:25.338Z,90.49
2022-08-17T17:25:01.208Z,90.53
2022-08-17T17:27:42.507Z,91.57
2022-08-17T17:30:33.357Z,90.17
2022-08-17T17:33:14.594Z,90.31
2022-08-17T17:35:50.817Z,90.23
2022-08-17T17:38:29.120Z,90.45
2022-08-17T17:41:02.484Z,89.41
2022-08-17T17:43:39.622Z,89.48
2022-08-17T17:46:28.688Z,89.64
2022-08-17T17:49:00.950Z,89.71
2022-08-17T17:52:09.201Z,89.15
2022-08-17T17:54:53.967Z,88.13
2022-08-17T17:57:47.026Z,89.08
2022-08-17T18:00:23.452Z,89.50
2022-08-17T18:03:13.243Z,90.64
2022-08-17T18:05:57.463Z,90.68
2022-08-17T18:08:36.694Z,91.79
2022-08-17T18:11:55.067Z,91.84
2022-08-17T18:14:45.596Z,92.01
2022-08-17T18:17:16.493Z,91.94
2022-08-17T18:19:45.167Z,90.61
2022-08-17T18:22:21.434Z,91.22
2022-08-17T18:24:56.414Z,92.01
2022-08-17T18:27:51.285Z,91.16
2022-08-17T18:30:19.945Z,91.61
2022-08-17T18:32:48.355Z,91.76
2022-08-17T18:35:19.420Z,91.32
2022-08-17T18:38:17.986Z,92.14
2022-08-17T18:41:04.490Z,92.46
2022-08-17T18:43:53.221Z,92.63
2022-08-17T18:46:28.417Z,93.04
2022-08-17T18:49:03.494Z,93.67
2022-08-17T18:51:40.677Z,93.97
2022-08-17T18:54:23.040Z,94.12
2022-08-17T18:56:56.209Z,94.10
2022-08-17T18:59:46.993Z,94.31
2022-08-17T19:02:38.647Z,94.69
2022-08-17T19:05:08.556Z,94.77
2022-08-17T19:07:41.517Z,94.85
2022-08-17T19:10:28.385Z,95.18
2022-08-17T19:13:13.994Z,95.34
2022-08-17T19:16:20.332Z,95.62
2022-08-17T19:19:17.218Z,95.91
2022-08-17T19:21:59.034Z,95.92
2022-08-17T19:24:31.415Z,96.06
2022-08-17T19:27:41.797Z,95.90
2022-08-17T19:30:15.682Z,96.04
2022-08-17T19:32:43.722Z,96.17
2022-08-17T19:35:17.328Z,96.24
2022-08-17T19:38:20.202Z,96.27
2022-08-17T19:41:00.542Z,96.33
2022-08-17T19:44:26.914Z,96.54
2022-08-17T19:47:55.158Z,96.83
2022-08-17T19:50:39.087Z,96.85
2022-08-17T19:53:13.492Z,92.39
2022-08-17T19:56:00.010Z,91.80
2022-08-17T19:58:45.950Z,89.19
2022-08-17T20:01:27.942Z,90.58
2022-08-17T20:04:19.278Z,92.38
2022-08-17T20:06:53.134Z,94.02
2022-08-17T20:09:39.069Z,93.69
2022-08-17T20:12:23.652Z,93.27
2022-08-17T20:14:57.316Z,93.91
2022-08-17T20:17:35.058Z,94.73
2022-08-17T20:20:19.631Z,95.45
2022-08-17T20:23:07.217Z,94.80
2022-08-17T20:25:59.369Z,94.74
2022-08-17T20:28:30.925Z,95.64
2022-08-17T20:30:59.774Z,95.95
2022-08-17T20:33:39.865Z,96.83
2022-08-17T20:36:21.906Z,96.07
2022-08-17T20:38:55.999Z,95.62
2022-08-17T20:41:26.917Z,96.51
2022-08-17T20:43:58.654Z,96.45
2022-08-17T20:46:36.789Z,96.59
2022-08-17T20:49:24.139Z,96.73
2022-08-17T20:52:00.633Z,96.97
2022-08-17T20:54:44.582Z,97.21
2022-08-17T20:57:32.132Z,97.08
2022-08-17T21:00:17.098Z,97.77
2022-08-17T21:02:52.616Z,97.04
2022-08-17T21:06:00.293Z,96.88
2022-08-17T21:08:54.739Z,97.08
2022-08-17T21:12:03.205Z,97.23
2022-08-17T21:14:29.715Z,97.14
2022-08-17T21:17:23.728Z,97.30
2022-08-17T21:20:12.602Z,97.13
2022-08-17T21:22:54.915Z,97.14
2022-08-17T21:25:49.246Z,96.90
2022-08-17T21:29:01.453Z,97.14
2022-08-17T21:31:49.059Z,97.19
2022-08-17T21:34:29.282Z,97.22
2022-08-17T21:37:21.682Z,97.56
2022-08-17T21:40:11.613Z,97.59
2022-08-17T21:42:50.728Z,97.75
2022-08-17T21:45:24.294Z,97.61
2022-08-17T21:48:18.809Z,97.78
2022-08-17T21:50:57.938Z,97.54
2022-08-17T21:53:38.795Z,97.22
2022-08-17T21:56:14.672Z,97.22
2022-08-17T21:58:54.754Z,97.43
2022-08-17T22:01:35.376Z,97.25
2022-08-17T22:04:18.506Z,97.24
2022-08-17T22:06:52.282Z,97.20
2022-08-17T22:09:46.022Z,97.38
2022-08-17T22:12:22.694Z,97.35
2022-08-17T22:14:56.199Z,97.21
2022-08-17T22:17:38.175Z,97.43
2022-08-17T22:20:14.857Z,97.18
2022-08-17T22:23:10.339Z,97.44
2022-08-17T22:26:09.757Z,97.42
2022-08-17T22:28:45.750Z,97.55
2022-08-17T22:31:29.282Z,97.48
2022-08-17T22:34:00.384Z,97.57
2022-08-17T22:36:38.956Z,97.47
2022-08-17T22:39:09.530Z,97.45
2022-08-17T22:41:59.285Z,97.44
2022-08-17T22:44:35.573Z,97.55
2022-08-17T22:47:30.711Z,97.58
2022-08-17T22:50:12.756Z,97.52
2022-08-17T22:53:03.085Z,97.51
2022-08-17T22:55:52.064Z,97.32
2022-08-17T22:58:42.118Z,97.18
2022-08-17T23:01:29.136Z,97.46
2022-08-17T23:04:10.926Z,97.39
2022-08-17T23:06:42.431Z,97.13
2022-08-17T23:09:10.487Z,97.04
2022-08-17T23:11:52.269Z,96.81
2022-08-17T23:14:21.441Z,96.93
2022-08-17T23:16:50.907Z,97.04
2022-08-17T23:19:21.350Z,96.97
2022-08-17T23:21:52.361Z,96.85
2022-08-17T23:24:23.076Z,96.53
2022-08-17T23:26:51.164Z,96.69
2022-08-17T23:29:21.555Z,96.69
2022-08-17T23:31:50.977Z,96.77
2022-08-17T23:34:19.419Z,97.11
2022-08-17T23:36:53.186Z,97.24
2022-08-17T23:39:24.416Z,97.49
2022-08-17T23:41:59.050Z,97.48
2022-08-17T23:44:28.720Z,97.56
2022-08-17T23:46:57.196Z,97.66
2022-08-17T23:49:25.495Z,97.79
2022-08-17T23:51:56.591Z,97.84
2022-08-17T23:54:41.543Z,97.99
2022-08-17T23:57:12.048Z,97.55
2022-08-17T23:59:40.656Z,97.67
